sensor_id;sensor_type;location;lat;lon;timestamp;temperature;humidity
10459;DHT22;5277;48.722;8.736;2024-01-07T00:02:24;6.50;99.90
10459;DHT22;5277;48.722;8.736;2024-01-07T00:04:50;6.40;99.90
10459;DHT22;5277;48.722;8.736;2024-01-07T00:07:15;6.30;99.90
10459;DHT22;5277;48.722;8.736;2024-01-07T00:09:41;6.30;99.90
10459;DHT22;5277;48.722;8.736;2024-01-07T00:12:06;6.30;99.90
10459;DHT22;5277;48.722;8.736;2024-01-07T00:14:32;6.30;99.90
10459;DHT22;5277;48.722;8.736;2024-01-07T00:16:58;6.20;99.90
10459;DHT22;5277;48.722;8.736;2024-01-07T00:19:23;6.30;99.90
10459;DHT22;5277;48.722;8.736;2024-01-07T00:21:49;6.20;99.90
10459;DHT22;5277;48.722;8.736;2024-01-07T00:24:15;6.10;99.90
10459;DHT22;5277;48.722;8.736;2024-01-07T00:26:41;6.10;99.90
10459;DHT22;5277;48.722;8.736;2024-01-07T00:29:07;6.10;99.90
10459;DHT22;5277;48.722;8.736;2024-01-07T00:31:32;6.00;99.90
10459;DHT22;5277;48.722;8.736;2024-01-07T00:33:58;6.00;99.90
10459;DHT22;5277;48.722;8.736;2024-01-07T00:36:23;6.10;99.90
10459;DHT22;5277;48.722;8.736;2024-01-07T00:38:49;6.00;99.90
10459;DHT22;5277;48.722;8.736;2024-01-07T00:41:14;5.90;99.90
10459;DHT22;5277;48.722;8.736;2024-01-07T00:43:40;6.00;99.90
10459;DHT22;5277;48.722;8.736;2024-01-07T00:46:06;5.80;99.90
10459;DHT22;5277;48.722;8.736;2024-01-07T00:48:32;5.80;99.90
10459;DHT22;5277;48.722;8.736;2024-01-07T00:50:57;5.90;99.90
10459;DHT22;5277;48.722;8.736;2024-01-07T00:53:23;5.90;99.90
10459;DHT22;5277;48.722;8.736;2024-01-07T00:55:48;5.90;99.90
10459;DHT22;5277;48.722;8.736;2024-01-07T00:58:14;5.90;99.90
10459;DHT22;5277;48.722;8.736;2024-01-07T01:00:39;5.90;99.90
10459;DHT22;5277;48.722;8.736;2024-01-07T01:03:05;5.90;99.90
10459;DHT22;5277;48.722;8.736;2024-01-07T01:05:31;6.00;99.90
10459;DHT22;5277;48.722;8.736;2024-01-07T01:07:56;6.00;99.90
10459;DHT22;5277;48.722;8.736;2024-01-07T01:10:22;6.00;99.90
10459;DHT22;5277;48.722;8.736;2024-01-07T01:12:47;6.00;99.90
10459;DHT22;5277;48.722;8.736;2024-01-07T01:15:13;6.00;99.90
10459;DHT22;5277;48.722;8.736;2024-01-07T01:17:42;6.10;99.90
10459;DHT22;5277;48.722;8.736;2024-01-07T01:20:08;6.10;99.90
10459;DHT22;5277;48.722;8.736;2024-01-07T01:22:34;6.10;99.90
10459;DHT22;5277;48.722;8.736;2024-01-07T01:24:59;6.00;99.90
10459;DHT22;5277;48.722;8.736;2024-01-07T01:27:25;6.00;99.90
10459;DHT22;5277;48.722;8.736;2024-01-07T01:29:51;6.10;99.90
10459;DHT22;5277;48.722;8.736;2024-01-07T01:32:16;6.10;99.90
10459;DHT22;5277;48.722;8.736;2024-01-07T01:34:42;6.10;99.90
10459;DHT22;5277;48.722;8.736;2024-01-07T01:37:10;6.10;99.90
10459;DHT22;5277;48.722;8.736;2024-01-07T01:39:38;6.10;99.90
10459;DHT22;5277;48.722;8.736;2024-01-07T01:42:04;6.10;99.90
10459;DHT22;5277;48.722;8.736;2024-01-07T01:44:30;6.10;99.90
10459;DHT22;5277;48.722;8.736;2024-01-07T01:46:57;6.10;99.90
10459;DHT22;5277;48.722;8.736;2024-01-07T01:49:24;6.10;99.90
10459;DHT22;5277;48.722;8.736;2024-01-07T01:51:50;6.10;99.90
10459;DHT22;5277;48.722;8.736;2024-01-07T01:54:16;6.20;99.90
10459;DHT22;5277;48.722;8.736;2024-01-07T01:56:42;6.10;99.90
10459;DHT22;5277;48.722;8.736;2024-01-07T01:59:08;6.20;99.90
10459;DHT22;5277;48.722;8.736;2024-01-07T02:01:34;6.10;99.90
10459;DHT22;5277;48.722;8.736;2024-01-07T02:04:00;6.00;99.90
10459;DHT22;5277;48.722;8.736;2024-01-07T02:06:26;6.10;99.90
10459;DHT22;5277;48.722;8.736;2024-01-07T02:08:51;6.10;99.90
10459;DHT22;5277;48.722;8.736;2024-01-07T02:11:21;6.00;99.90
10459;DHT22;5277;48.722;8.736;2024-01-07T02:13:47;6.00;99.90
10459;DHT22;5277;48.722;8.736;2024-01-07T02:16:13;6.00;99.90
10459;DHT22;5277;48.722;8.736;2024-01-07T02:18:42;6.00;99.90
10459;DHT22;5277;48.722;8.736;2024-01-07T02:21:09;5.90;99.90
10459;DHT22;5277;48.722;8.736;2024-01-07T02:23:35;5.90;99.90
10459;DHT22;5277;48.722;8.736;2024-01-07T02:26:01;5.90;99.90
10459;DHT22;5277;48.722;8.736;2024-01-07T02:28:27;5.90;99.90
10459;DHT22;5277;48.722;8.736;2024-01-07T02:30:52;5.90;99.90
10459;DHT22;5277;48.722;8.736;2024-01-07T02:33:18;6.00;99.90
10459;DHT22;5277;48.722;8.736;2024-01-07T02:35:43;6.00;99.90
10459;DHT22;5277;48.722;8.736;2024-01-07T02:38:09;6.00;99.90
10459;DHT22;5277;48.722;8.736;2024-01-07T02:40:34;6.00;99.90
10459;DHT22;5277;48.722;8.736;2024-01-07T02:43:00;6.10;99.90
10459;DHT22;5277;48.722;8.736;2024-01-07T02:45:26;6.10;99.90
10459;DHT22;5277;48.722;8.736;2024-01-07T02:47:51;6.10;99.90
10459;DHT22;5277;48.722;8.736;2024-01-07T02:50:17;6.10;99.90
10459;DHT22;5277;48.722;8.736;2024-01-07T02:52:42;6.10;99.90
10459;DHT22;5277;48.722;8.736;2024-01-07T02:55:08;6.10;99.90
10459;DHT22;5277;48.722;8.736;2024-01-07T02:57:34;6.10;99.90
10459;DHT22;5277;48.722;8.736;2024-01-07T03:00:00;6.10;99.90
10459;DHT22;5277;48.722;8.736;2024-01-07T03:02:26;6.10;99.90
10459;DHT22;5277;48.722;8.736;2024-01-07T03:04:51;6.10;99.90
10459;DHT22;5277;48.722;8.736;2024-01-07T03:07:17;6.10;99.90
10459;DHT22;5277;48.722;8.736;2024-01-07T03:09:43;6.10;99.90
10459;DHT22;5277;48.722;8.736;2024-01-07T03:12:08;6.10;99.90
10459;DHT22;5277;48.722;8.736;2024-01-07T03:14:34;6.00;99.90
10459;DHT22;5277;48.722;8.736;2024-01-07T03:16:59;5.90;99.90
10459;DHT22;5277;48.722;8.736;2024-01-07T03:19:25;5.90;99.90
10459;DHT22;5277;48.722;8.736;2024-01-07T03:21:51;5.90;99.90
10459;DHT22;5277;48.722;8.736;2024-01-07T03:24:16;5.90;99.90
10459;DHT22;5277;48.722;8.736;2024-01-07T03:26:42;5.90;99.90
10459;DHT22;5277;48.722;8.736;2024-01-07T03:29:07;5.80;99.90
10459;DHT22;5277;48.722;8.736;2024-01-07T03:31:33;5.80;99.90
10459;DHT22;5277;48.722;8.736;2024-01-07T03:33:59;5.70;99.90
10459;DHT22;5277;48.722;8.736;2024-01-07T03:36:24;5.70;99.90
10459;DHT22;5277;48.722;8.736;2024-01-07T03:38:50;5.70;99.90
10459;DHT22;5277;48.722;8.736;2024-01-07T03:41:17;5.70;99.90
10459;DHT22;5277;48.722;8.736;2024-01-07T03:43:48;5.70;99.90
10459;DHT22;5277;48.722;8.736;2024-01-07T03:46:15;5.70;99.90
10459;DHT22;5277;48.722;8.736;2024-01-07T03:48:41;5.70;99.90
10459;DHT22;5277;48.722;8.736;2024-01-07T03:51:07;5.70;99.90
10459;DHT22;5277;48.722;8.736;2024-01-07T03:53:33;5.70;99.90
10459;DHT22;5277;48.722;8.736;2024-01-07T03:55:58;5.80;99.90
10459;DHT22;5277;48.722;8.736;2024-01-07T03:58:24;5.70;99.90
10459;DHT22;5277;48.722;8.736;2024-01-07T04:00:49;5.70;99.90
10459;DHT22;5277;48.722;8.736;2024-01-07T04:03:15;5.70;99.90
10459;DHT22;5277;48.722;8.736;2024-01-07T04:05:41;5.60;99.90
10459;DHT22;5277;48.722;8.736;2024-01-07T04:08:09;5.70;99.90
10459;DHT22;5277;48.722;8.736;2024-01-07T04:10:35;5.70;99.90
10459;DHT22;5277;48.722;8.736;2024-01-07T04:13:00;5.70;99.90
10459;DHT22;5277;48.722;8.736;2024-01-07T04:15:26;5.60;99.90
10459;DHT22;5277;48.722;8.736;2024-01-07T04:17:52;5.60;99.90
10459;DHT22;5277;48.722;8.736;2024-01-07T04:20:17;5.70;99.90
10459;DHT22;5277;48.722;8.736;2024-01-07T04:22:43;5.60;99.90
10459;DHT22;5277;48.722;8.736;2024-01-07T04:25:08;5.60;99.90
10459;DHT22;5277;48.722;8.736;2024-01-07T04:27:35;5.50;99.90
10459;DHT22;5277;48.722;8.736;2024-01-07T04:30:02;5.50;99.90
10459;DHT22;5277;48.722;8.736;2024-01-07T04:32:27;5.50;99.90
10459;DHT22;5277;48.722;8.736;2024-01-07T04:34:53;5.50;99.90
10459;DHT22;5277;48.722;8.736;2024-01-07T04:37:18;5.50;99.90
10459;DHT22;5277;48.722;8.736;2024-01-07T04:39:44;5.50;99.90
10459;DHT22;5277;48.722;8.736;2024-01-07T04:42:09;5.60;99.90
10459;DHT22;5277;48.722;8.736;2024-01-07T04:44:35;5.60;99.90
10459;DHT22;5277;48.722;8.736;2024-01-07T04:47:01;5.60;99.90
10459;DHT22;5277;48.722;8.736;2024-01-07T04:49:26;5.60;99.90
10459;DHT22;5277;48.722;8.736;2024-01-07T04:51:52;5.50;99.90
10459;DHT22;5277;48.722;8.736;2024-01-07T04:54:17;5.50;99.90
10459;DHT22;5277;48.722;8.736;2024-01-07T04:56:44;5.50;99.90
10459;DHT22;5277;48.722;8.736;2024-01-07T04:59:09;5.60;99.90
10459;DHT22;5277;48.722;8.736;2024-01-07T05:01:35;5.50;99.90
10459;DHT22;5277;48.722;8.736;2024-01-07T05:04:02;5.50;99.90
10459;DHT22;5277;48.722;8.736;2024-01-07T05:06:27;5.40;99.90
10459;DHT22;5277;48.722;8.736;2024-01-07T05:08:53;5.40;99.90
10459;DHT22;5277;48.722;8.736;2024-01-07T05:11:18;5.40;99.90
10459;DHT22;5277;48.722;8.736;2024-01-07T05:13:44;5.40;99.90
10459;DHT22;5277;48.722;8.736;2024-01-07T05:16:18;5.50;99.90
10459;DHT22;5277;48.722;8.736;2024-01-07T05:18:44;5.50;99.90
10459;DHT22;5277;48.722;8.736;2024-01-07T05:21:20;5.50;99.90
10459;DHT22;5277;48.722;8.736;2024-01-07T05:23:46;5.50;99.90
10459;DHT22;5277;48.722;8.736;2024-01-07T05:26:11;5.50;99.90
10459;DHT22;5277;48.722;8.736;2024-01-07T05:28:37;5.50;99.90
10459;DHT22;5277;48.722;8.736;2024-01-07T05:31:03;5.60;99.90
10459;DHT22;5277;48.722;8.736;2024-01-07T05:33:29;5.60;99.90
10459;DHT22;5277;48.722;8.736;2024-01-07T05:35:54;5.60;99.90
10459;DHT22;5277;48.722;8.736;2024-01-07T05:38:20;5.60;99.90
10459;DHT22;5277;48.722;8.736;2024-01-07T05:40:45;5.60;99.90
10459;DHT22;5277;48.722;8.736;2024-01-07T05:43:11;5.60;99.90
10459;DHT22;5277;48.722;8.736;2024-01-07T05:45:36;5.60;99.90
10459;DHT22;5277;48.722;8.736;2024-01-07T05:48:02;5.70;99.90
10459;DHT22;5277;48.722;8.736;2024-01-07T05:50:28;5.70;99.90
10459;DHT22;5277;48.722;8.736;2024-01-07T05:52:53;5.70;99.90
10459;DHT22;5277;48.722;8.736;2024-01-07T05:55:19;5.80;99.90
10459;DHT22;5277;48.722;8.736;2024-01-07T05:57:44;5.70;99.90
10459;DHT22;5277;48.722;8.736;2024-01-07T06:00:12;5.70;99.90
10459;DHT22;5277;48.722;8.736;2024-01-07T06:02:38;5.70;99.90
10459;DHT22;5277;48.722;8.736;2024-01-07T06:05:05;5.70;99.90
10459;DHT22;5277;48.722;8.736;2024-01-07T06:07:31;5.70;99.90
10459;DHT22;5277;48.722;8.736;2024-01-07T06:09:56;5.60;99.90
10459;DHT22;5277;48.722;8.736;2024-01-07T06:12:22;5.60;99.90
10459;DHT22;5277;48.722;8.736;2024-01-07T06:14:47;5.60;99.90
10459;DHT22;5277;48.722;8.736;2024-01-07T06:17:13;5.60;99.90
10459;DHT22;5277;48.722;8.736;2024-01-07T06:19:38;5.60;99.90
10459;DHT22;5277;48.722;8.736;2024-01-07T06:22:04;5.60;99.90
10459;DHT22;5277;48.722;8.736;2024-01-07T06:24:29;5.50;99.90
10459;DHT22;5277;48.722;8.736;2024-01-07T06:26:55;5.50;99.90
10459;DHT22;5277;48.722;8.736;2024-01-07T06:29:20;5.50;99.90
10459;DHT22;5277;48.722;8.736;2024-01-07T06:31:46;5.50;99.90
10459;DHT22;5277;48.722;8.736;2024-01-07T06:34:12;5.50;99.90
10459;DHT22;5277;48.722;8.736;2024-01-07T06:36:40;5.60;99.90
10459;DHT22;5277;48.722;8.736;2024-01-07T06:39:09;5.60;99.90
10459;DHT22;5277;48.722;8.736;2024-01-07T06:41:35;5.60;99.90
10459;DHT22;5277;48.722;8.736;2024-01-07T06:44:02;5.60;99.90
10459;DHT22;5277;48.722;8.736;2024-01-07T06:46:28;5.60;99.90
10459;DHT22;5277;48.722;8.736;2024-01-07T06:48:53;5.60;99.90
10459;DHT22;5277;48.722;8.736;2024-01-07T06:51:19;5.60;99.90
10459;DHT22;5277;48.722;8.736;2024-01-07T06:53:44;5.60;99.90
10459;DHT22;5277;48.722;8.736;2024-01-07T06:56:10;5.60;99.90
10459;DHT22;5277;48.722;8.736;2024-01-07T06:58:35;5.60;99.90
10459;DHT22;5277;48.722;8.736;2024-01-07T07:01:01;5.60;99.90
10459;DHT22;5277;48.722;8.736;2024-01-07T07:03:28;5.50;99.90
10459;DHT22;5277;48.722;8.736;2024-01-07T07:05:53;5.60;99.90
10459;DHT22;5277;48.722;8.736;2024-01-07T07:08:19;5.60;99.90
10459;DHT22;5277;48.722;8.736;2024-01-07T07:10:44;5.60;99.90
10459;DHT22;5277;48.722;8.736;2024-01-07T07:13:11;5.60;99.90
10459;DHT22;5277;48.722;8.736;2024-01-07T07:15:37;5.60;99.90
10459;DHT22;5277;48.722;8.736;2024-01-07T07:18:03;5.60;99.90
10459;DHT22;5277;48.722;8.736;2024-01-07T07:20:28;5.50;99.90
10459;DHT22;5277;48.722;8.736;2024-01-07T07:22:54;5.50;99.90
10459;DHT22;5277;48.722;8.736;2024-01-07T07:25:19;5.50;99.90
10459;DHT22;5277;48.722;8.736;2024-01-07T07:27:45;5.50;99.90
10459;DHT22;5277;48.722;8.736;2024-01-07T07:30:11;5.50;99.90
10459;DHT22;5277;48.722;8.736;2024-01-07T07:32:39;5.50;99.90
10459;DHT22;5277;48.722;8.736;2024-01-07T07:35:05;5.50;99.90
10459;DHT22;5277;48.722;8.736;2024-01-07T07:37:32;5.50;99.90
10459;DHT22;5277;48.722;8.736;2024-01-07T07:39:58;5.50;99.90
10459;DHT22;5277;48.722;8.736;2024-01-07T07:42:23;5.60;99.90
10459;DHT22;5277;48.722;8.736;2024-01-07T07:44:49;5.60;99.90
10459;DHT22;5277;48.722;8.736;2024-01-07T07:47:15;5.60;99.90
10459;DHT22;5277;48.722;8.736;2024-01-07T07:49:40;5.60;99.90
10459;DHT22;5277;48.722;8.736;2024-01-07T07:52:09;5.50;99.90
10459;DHT22;5277;48.722;8.736;2024-01-07T07:54:37;5.60;99.90
10459;DHT22;5277;48.722;8.736;2024-01-07T07:57:03;5.60;99.90
10459;DHT22;5277;48.722;8.736;2024-01-07T07:59:28;5.60;99.90
10459;DHT22;5277;48.722;8.736;2024-01-07T08:01:54;5.60;99.90
10459;DHT22;5277;48.722;8.736;2024-01-07T08:04:20;5.60;99.90
10459;DHT22;5277;48.722;8.736;2024-01-07T08:06:46;5.60;99.90
10459;DHT22;5277;48.722;8.736;2024-01-07T08:09:11;5.60;99.90
10459;DHT22;5277;48.722;8.736;2024-01-07T08:11:37;5.60;99.90
10459;DHT22;5277;48.722;8.736;2024-01-07T08:14:02;5.60;99.90
10459;DHT22;5277;48.722;8.736;2024-01-07T08:16:28;5.60;99.90
10459;DHT22;5277;48.722;8.736;2024-01-07T08:18:53;5.60;99.90
10459;DHT22;5277;48.722;8.736;2024-01-07T08:21:22;5.60;99.90
10459;DHT22;5277;48.722;8.736;2024-01-07T08:23:48;5.60;99.90
10459;DHT22;5277;48.722;8.736;2024-01-07T08:26:21;5.60;99.90
10459;DHT22;5277;48.722;8.736;2024-01-07T08:28:47;5.60;99.90
10459;DHT22;5277;48.722;8.736;2024-01-07T08:31:12;5.60;99.90
10459;DHT22;5277;48.722;8.736;2024-01-07T08:33:38;5.60;99.90
10459;DHT22;5277;48.722;8.736;2024-01-07T08:36:04;5.60;99.90
10459;DHT22;5277;48.722;8.736;2024-01-07T08:38:30;5.50;99.90
10459;DHT22;5277;48.722;8.736;2024-01-07T08:40:55;5.50;99.90
10459;DHT22;5277;48.722;8.736;2024-01-07T08:43:21;5.50;99.90
10459;DHT22;5277;48.722;8.736;2024-01-07T08:45:46;5.50;99.90
10459;DHT22;5277;48.722;8.736;2024-01-07T08:48:12;5.40;99.90
10459;DHT22;5277;48.722;8.736;2024-01-07T08:50:38;5.40;99.90
10459;DHT22;5277;48.722;8.736;2024-01-07T08:53:04;5.40;99.90
10459;DHT22;5277;48.722;8.736;2024-01-07T08:55:30;5.40;99.90
10459;DHT22;5277;48.722;8.736;2024-01-07T08:57:56;5.30;99.90
10459;DHT22;5277;48.722;8.736;2024-01-07T09:00:21;5.30;99.90
10459;DHT22;5277;48.722;8.736;2024-01-07T09:02:51;5.30;99.90
10459;DHT22;5277;48.722;8.736;2024-01-07T09:05:17;5.20;99.90
10459;DHT22;5277;48.722;8.736;2024-01-07T09:07:42;5.20;99.90
10459;DHT22;5277;48.722;8.736;2024-01-07T09:10:08;5.10;99.90
10459;DHT22;5277;48.722;8.736;2024-01-07T09:12:36;5.10;99.90
10459;DHT22;5277;48.722;8.736;2024-01-07T09:15:04;5.10;99.90
10459;DHT22;5277;48.722;8.736;2024-01-07T09:17:29;5.10;99.90
10459;DHT22;5277;48.722;8.736;2024-01-07T09:19:55;5.00;99.90
10459;DHT22;5277;48.722;8.736;2024-01-07T09:22:20;4.90;99.90
10459;DHT22;5277;48.722;8.736;2024-01-07T09:24:47;4.80;99.90
10459;DHT22;5277;48.722;8.736;2024-01-07T09:27:12;4.90;99.90
10459;DHT22;5277;48.722;8.736;2024-01-07T09:29:38;4.90;99.90
10459;DHT22;5277;48.722;8.736;2024-01-07T09:32:04;4.90;99.90
10459;DHT22;5277;48.722;8.736;2024-01-07T09:34:29;5.00;99.90
10459;DHT22;5277;48.722;8.736;2024-01-07T09:36:55;5.10;99.90
10459;DHT22;5277;48.722;8.736;2024-01-07T09:39:20;5.10;99.90
10459;DHT22;5277;48.722;8.736;2024-01-07T09:41:46;5.00;99.90
10459;DHT22;5277;48.722;8.736;2024-01-07T09:44:12;4.90;99.90
10459;DHT22;5277;48.722;8.736;2024-01-07T09:46:39;5.00;99.90
10459;DHT22;5277;48.722;8.736;2024-01-07T09:49:05;5.10;99.90
10459;DHT22;5277;48.722;8.736;2024-01-07T09:51:35;5.00;99.90
10459;DHT22;5277;48.722;8.736;2024-01-07T09:54:03;5.10;99.90
10459;DHT22;5277;48.722;8.736;2024-01-07T09:56:38;5.00;99.90
10459;DHT22;5277;48.722;8.736;2024-01-07T09:59:08;5.00;99.90
10459;DHT22;5277;48.722;8.736;2024-01-07T10:01:34;5.10;99.90
10459;DHT22;5277;48.722;8.736;2024-01-07T10:04:01;5.10;99.90
10459;DHT22;5277;48.722;8.736;2024-01-07T10:06:27;5.10;99.90
10459;DHT22;5277;48.722;8.736;2024-01-07T10:08:52;5.10;99.90
10459;DHT22;5277;48.722;8.736;2024-01-07T10:11:18;5.10;99.90
10459;DHT22;5277;48.722;8.736;2024-01-07T10:13:47;5.00;99.90
10459;DHT22;5277;48.722;8.736;2024-01-07T10:16:13;5.10;99.90
10459;DHT22;5277;48.722;8.736;2024-01-07T10:18:39;5.10;99.90
10459;DHT22;5277;48.722;8.736;2024-01-07T10:21:07;5.10;99.90
10459;DHT22;5277;48.722;8.736;2024-01-07T10:23:32;5.10;99.90
10459;DHT22;5277;48.722;8.736;2024-01-07T10:25:58;5.10;99.90
10459;DHT22;5277;48.722;8.736;2024-01-07T10:28:23;5.10;99.90
10459;DHT22;5277;48.722;8.736;2024-01-07T10:30:49;5.10;99.90
10459;DHT22;5277;48.722;8.736;2024-01-07T10:33:17;5.10;99.90
10459;DHT22;5277;48.722;8.736;2024-01-07T10:35:51;5.00;99.90
10459;DHT22;5277;48.722;8.736;2024-01-07T10:38:18;5.00;99.90
10459;DHT22;5277;48.722;8.736;2024-01-07T10:40:46;4.90;99.90
10459;DHT22;5277;48.722;8.736;2024-01-07T10:43:14;4.80;99.90
10459;DHT22;5277;48.722;8.736;2024-01-07T10:45:40;4.80;99.90
10459;DHT22;5277;48.722;8.736;2024-01-07T10:48:08;4.90;99.90
10459;DHT22;5277;48.722;8.736;2024-01-07T10:50:36;5.00;99.90
10459;DHT22;5277;48.722;8.736;2024-01-07T10:53:08;4.90;99.90
10459;DHT22;5277;48.722;8.736;2024-01-07T10:55:37;4.80;99.90
10459;DHT22;5277;48.722;8.736;2024-01-07T10:58:04;4.80;99.90
10459;DHT22;5277;48.722;8.736;2024-01-07T11:00:31;4.70;99.90
10459;DHT22;5277;48.722;8.736;2024-01-07T11:03:20;4.70;99.90
10459;DHT22;5277;48.722;8.736;2024-01-07T11:05:58;4.70;99.90
10459;DHT22;5277;48.722;8.736;2024-01-07T11:11:06;4.50;99.90
10459;DHT22;5277;48.722;8.736;2024-01-07T11:13:37;4.50;99.90
10459;DHT22;5277;48.722;8.736;2024-01-07T11:16:04;4.50;99.90
10459;DHT22;5277;48.722;8.736;2024-01-07T11:18:31;4.50;99.90
10459;DHT22;5277;48.722;8.736;2024-01-07T11:21:02;4.50;99.90
10459;DHT22;5277;48.722;8.736;2024-01-07T11:23:36;4.50;99.90
10459;DHT22;5277;48.722;8.736;2024-01-07T11:26:03;4.40;99.90
10459;DHT22;5277;48.722;8.736;2024-01-07T11:28:51;4.40;99.90
10459;DHT22;5277;48.722;8.736;2024-01-07T11:31:19;4.30;99.90
10459;DHT22;5277;48.722;8.736;2024-01-07T11:33:47;4.40;99.90
10459;DHT22;5277;48.722;8.736;2024-01-07T11:36:16;4.40;99.90
10459;DHT22;5277;48.722;8.736;2024-01-07T11:38:48;4.40;99.90
10459;DHT22;5277;48.722;8.736;2024-01-07T11:41:15;4.40;99.90
10459;DHT22;5277;48.722;8.736;2024-01-07T11:43:57;4.50;99.90
10459;DHT22;5277;48.722;8.736;2024-01-07T11:46:28;4.50;99.90
10459;DHT22;5277;48.722;8.736;2024-01-07T11:48:55;4.60;99.90
10459;DHT22;5277;48.722;8.736;2024-01-07T11:51:25;4.60;99.90
10459;DHT22;5277;48.722;8.736;2024-01-07T11:53:52;4.50;99.90
10459;DHT22;5277;48.722;8.736;2024-01-07T11:56:18;4.60;99.90
10459;DHT22;5277;48.722;8.736;2024-01-07T11:58:44;4.60;99.90
10459;DHT22;5277;48.722;8.736;2024-01-07T12:01:09;4.60;99.90
10459;DHT22;5277;48.722;8.736;2024-01-07T12:03:35;4.60;99.90
10459;DHT22;5277;48.722;8.736;2024-01-07T12:06:01;4.50;99.90
10459;DHT22;5277;48.722;8.736;2024-01-07T12:08:26;4.50;99.90
10459;DHT22;5277;48.722;8.736;2024-01-07T12:10:52;4.50;99.90
10459;DHT22;5277;48.722;8.736;2024-01-07T12:13:18;4.50;99.90
10459;DHT22;5277;48.722;8.736;2024-01-07T12:15:45;4.50;99.90
10459;DHT22;5277;48.722;8.736;2024-01-07T12:18:11;4.60;99.90
10459;DHT22;5277;48.722;8.736;2024-01-07T12:20:36;4.60;99.90
10459;DHT22;5277;48.722;8.736;2024-01-07T12:23:09;4.50;99.90
10459;DHT22;5277;48.722;8.736;2024-01-07T12:25:36;4.50;99.90
10459;DHT22;5277;48.722;8.736;2024-01-07T12:28:03;4.50;99.90
10459;DHT22;5277;48.722;8.736;2024-01-07T12:30:31;4.50;99.90
10459;DHT22;5277;48.722;8.736;2024-01-07T12:32:57;4.40;99.90
10459;DHT22;5277;48.722;8.736;2024-01-07T12:35:25;4.40;99.90
10459;DHT22;5277;48.722;8.736;2024-01-07T12:37:52;4.30;99.90
10459;DHT22;5277;48.722;8.736;2024-01-07T12:40:17;4.10;99.90
10459;DHT22;5277;48.722;8.736;2024-01-07T12:42:45;4.20;99.90
10459;DHT22;5277;48.722;8.736;2024-01-07T12:45:12;4.10;99.90
10459;DHT22;5277;48.722;8.736;2024-01-07T12:47:41;4.10;99.90
10459;DHT22;5277;48.722;8.736;2024-01-07T12:50:08;4.20;99.90
10459;DHT22;5277;48.722;8.736;2024-01-07T12:52:39;4.10;99.90
10459;DHT22;5277;48.722;8.736;2024-01-07T12:55:06;4.10;99.90
10459;DHT22;5277;48.722;8.736;2024-01-07T12:57:32;4.20;99.90
10459;DHT22;5277;48.722;8.736;2024-01-07T12:59:58;4.10;99.90
10459;DHT22;5277;48.722;8.736;2024-01-07T13:02:23;4.10;99.90
10459;DHT22;5277;48.722;8.736;2024-01-07T13:04:50;4.00;99.90
10459;DHT22;5277;48.722;8.736;2024-01-07T13:07:16;4.00;99.90
10459;DHT22;5277;48.722;8.736;2024-01-07T13:09:42;4.00;99.90
10459;DHT22;5277;48.722;8.736;2024-01-07T13:12:10;4.00;99.90
10459;DHT22;5277;48.722;8.736;2024-01-07T13:14:36;3.90;99.90
10459;DHT22;5277;48.722;8.736;2024-01-07T13:17:01;3.90;99.90
10459;DHT22;5277;48.722;8.736;2024-01-07T13:19:27;3.90;99.90
10459;DHT22;5277;48.722;8.736;2024-01-07T13:21:52;3.90;99.90
10459;DHT22;5277;48.722;8.736;2024-01-07T13:24:21;4.00;99.90
10459;DHT22;5277;48.722;8.736;2024-01-07T13:26:47;4.00;99.90
10459;DHT22;5277;48.722;8.736;2024-01-07T13:29:12;4.00;99.90
10459;DHT22;5277;48.722;8.736;2024-01-07T13:31:38;4.00;99.90
10459;DHT22;5277;48.722;8.736;2024-01-07T13:34:04;3.90;99.90
10459;DHT22;5277;48.722;8.736;2024-01-07T13:36:29;3.90;99.90
10459;DHT22;5277;48.722;8.736;2024-01-07T13:38:55;3.80;99.90
10459;DHT22;5277;48.722;8.736;2024-01-07T13:41:20;3.80;99.90
10459;DHT22;5277;48.722;8.736;2024-01-07T13:43:46;3.80;99.90
10459;DHT22;5277;48.722;8.736;2024-01-07T13:46:11;3.70;99.90
10459;DHT22;5277;48.722;8.736;2024-01-07T13:51:10;3.70;99.90
10459;DHT22;5277;48.722;8.736;2024-01-07T13:53:36;3.70;99.90
10459;DHT22;5277;48.722;8.736;2024-01-07T13:56:01;3.60;99.90
10459;DHT22;5277;48.722;8.736;2024-01-07T13:58:27;3.50;99.90
10459;DHT22;5277;48.722;8.736;2024-01-07T14:00:53;3.50;99.90
10459;DHT22;5277;48.722;8.736;2024-01-07T14:03:18;3.50;99.90
10459;DHT22;5277;48.722;8.736;2024-01-07T14:05:45;3.50;99.90
10459;DHT22;5277;48.722;8.736;2024-01-07T14:08:11;3.40;99.90
10459;DHT22;5277;48.722;8.736;2024-01-07T14:10:37;3.30;99.90
10459;DHT22;5277;48.722;8.736;2024-01-07T14:13:03;3.30;99.90
10459;DHT22;5277;48.722;8.736;2024-01-07T14:15:29;3.30;99.90
10459;DHT22;5277;48.722;8.736;2024-01-07T14:17:55;3.30;99.90
10459;DHT22;5277;48.722;8.736;2024-01-07T14:20:20;3.40;99.90
10459;DHT22;5277;48.722;8.736;2024-01-07T14:22:47;3.30;99.90
10459;DHT22;5277;48.722;8.736;2024-01-07T14:25:12;3.30;99.90
10459;DHT22;5277;48.722;8.736;2024-01-07T14:27:39;3.30;99.90
10459;DHT22;5277;48.722;8.736;2024-01-07T14:30:06;3.20;99.90
10459;DHT22;5277;48.722;8.736;2024-01-07T14:32:32;3.20;99.90
10459;DHT22;5277;48.722;8.736;2024-01-07T14:34:58;3.20;99.90
10459;DHT22;5277;48.722;8.736;2024-01-07T14:37:24;3.30;99.90
10459;DHT22;5277;48.722;8.736;2024-01-07T14:39:50;3.20;99.90
10459;DHT22;5277;48.722;8.736;2024-01-07T14:42:15;3.10;99.90
10459;DHT22;5277;48.722;8.736;2024-01-07T14:44:41;3.10;99.90
10459;DHT22;5277;48.722;8.736;2024-01-07T14:47:06;3.10;99.90
10459;DHT22;5277;48.722;8.736;2024-01-07T14:49:33;3.10;99.90
10459;DHT22;5277;48.722;8.736;2024-01-07T14:51:59;3.00;99.90
10459;DHT22;5277;48.722;8.736;2024-01-07T14:54:24;2.90;99.90
10459;DHT22;5277;48.722;8.736;2024-01-07T14:56:50;2.90;99.90
10459;DHT22;5277;48.722;8.736;2024-01-07T14:59:15;2.90;99.90
10459;DHT22;5277;48.722;8.736;2024-01-07T15:01:41;2.80;99.90
10459;DHT22;5277;48.722;8.736;2024-01-07T15:04:09;2.80;99.90
10459;DHT22;5277;48.722;8.736;2024-01-07T15:06:41;2.80;99.90
10459;DHT22;5277;48.722;8.736;2024-01-07T15:09:07;2.70;99.90
10459;DHT22;5277;48.722;8.736;2024-01-07T15:11:33;2.70;99.90
10459;DHT22;5277;48.722;8.736;2024-01-07T15:13:59;2.70;99.90
10459;DHT22;5277;48.722;8.736;2024-01-07T15:16:25;2.70;99.90
10459;DHT22;5277;48.722;8.736;2024-01-07T15:18:51;2.60;99.90
10459;DHT22;5277;48.722;8.736;2024-01-07T15:21:17;2.70;99.90
10459;DHT22;5277;48.722;8.736;2024-01-07T15:23:42;2.60;99.90
10459;DHT22;5277;48.722;8.736;2024-01-07T15:26:08;2.70;99.90
10459;DHT22;5277;48.722;8.736;2024-01-07T15:28:34;2.70;99.90
10459;DHT22;5277;48.722;8.736;2024-01-07T15:30:59;2.70;99.90
10459;DHT22;5277;48.722;8.736;2024-01-07T15:33:25;2.60;99.90
10459;DHT22;5277;48.722;8.736;2024-01-07T15:35:51;2.60;99.90
10459;DHT22;5277;48.722;8.736;2024-01-07T15:38:17;2.70;99.90
10459;DHT22;5277;48.722;8.736;2024-01-07T15:40:43;2.70;99.90
10459;DHT22;5277;48.722;8.736;2024-01-07T15:43:10;2.70;99.90
10459;DHT22;5277;48.722;8.736;2024-01-07T15:45:37;2.70;99.90
10459;DHT22;5277;48.722;8.736;2024-01-07T15:48:03;2.70;99.90
10459;DHT22;5277;48.722;8.736;2024-01-07T15:50:29;2.60;99.90
10459;DHT22;5277;48.722;8.736;2024-01-07T15:52:54;2.60;99.90
10459;DHT22;5277;48.722;8.736;2024-01-07T15:55:22;2.60;99.90
10459;DHT22;5277;48.722;8.736;2024-01-07T15:57:48;2.60;99.90
10459;DHT22;5277;48.722;8.736;2024-01-07T16:00:14;2.60;99.90
10459;DHT22;5277;48.722;8.736;2024-01-07T16:02:40;2.60;99.90